sensor_id;sensor_type;location;lat;lon;timestamp;pressure;altitude;pressure_sealevel;temperature;humidity
64019;BME280;66942;52.138;5.216;2023-02-16T00:00:16;102408.0;;;7.39;68.02
64019;BME280;66942;52.138;5.216;2023-02-16T00:01:53;102406.0;;;7.47;67.6
64019;BME280;66942;52.138;5.216;2023-02-16T00:03:30;102406.0;;;7.26;68.17
64019;BME280;66942;52.138;5.216;2023-02-16T00:05:16;102407.0;;;7.41;67.73
64019;BME280;66942;52.138;5.216;2023-02-16T00:06:58;102404.0;;;7.5;67.48
64019;BME280;66942;52.138;5.216;2023-02-16T00:10:11;102400.0;;;7.57;67.23
64019;BME280;66942;52.138;5.216;2023-02-16T00:14:10;102400.0;;;7.39;67.8
64019;BME280;66942;52.138;5.216;2023-02-16T00:15:47;102406.0;;;7.19;68.3
64019;BME280;66942;52.138;5.216;2023-02-16T00:17:23;102403.0;;;7.12;68.5
64019;BME280;66942;52.138;5.216;2023-02-16T00:20:37;102405.0;;;7.25;68.16
64019;BME280;66942;52.138;5.216;2023-02-16T00:22:13;102403.0;;;7.48;67.56
64019;BME280;66942;52.138;5.216;2023-02-16T00:23:49;102400.0;;;7.27;67.95
64019;BME280;66942;52.138;5.216;2023-02-16T00:27:12;102405.0;;;7.29;68.05
64019;BME280;66942;52.138;5.216;2023-02-16T00:28:49;102406.0;;;7.14;68.3
64019;BME280;66942;52.138;5.216;2023-02-16T00:30:28;102402.0;;;7.27;67.95
64019;BME280;66942;52.138;5.216;2023-02-16T00:32:04;102395.0;;;7.33;67.78
64019;BME280;66942;52.138;5.216;2023-02-16T00:35:19;102398.0;;;7.43;67.6
64019;BME280;66942;52.138;5.216;2023-02-16T00:36:58;102394.0;;;7.43;67.41
64019;BME280;66942;52.138;5.216;2023-02-16T00:38:35;102396.0;;;7.4;67.36
64019;BME280;66942;52.138;5.216;2023-02-16T00:41:50;102398.0;;;7.05;68.56
64019;BME280;66942;52.138;5.216;2023-02-16T00:43:28;102397.0;;;7.37;68.03
64019;BME280;66942;52.138;5.216;2023-02-16T00:45:14;102391.0;;;7.3;68.22
64019;BME280;66942;52.138;5.216;2023-02-16T00:46:51;102393.0;;;7.18;68.38
64019;BME280;66942;52.138;5.216;2023-02-16T00:50:09;102393.0;;;7.37;67.78
64019;BME280;66942;52.138;5.216;2023-02-16T00:51:49;102391.0;;;7.31;68.06
64019;BME280;66942;52.138;5.216;2023-02-16T00:53:25;102393.0;;;7.17;68.44
64019;BME280;66942;52.138;5.216;2023-02-16T00:55:06;102396.0;;;7.06;68.88
64019;BME280;66942;52.138;5.216;2023-02-16T00:58:23;102391.0;;;7.17;68.58
64019;BME280;66942;52.138;5.216;2023-02-16T01:00:05;102387.0;;;7.1;68.63
64019;BME280;66942;52.138;5.216;2023-02-16T01:01:48;102380.0;;;7.19;68.36
64019;BME280;66942;52.138;5.216;2023-02-16T01:03:26;102380.0;;;7.22;68.41
64019;BME280;66942;52.138;5.216;2023-02-16T01:11:14;102392.0;;;6.82;69.55
64019;BME280;66942;52.138;5.216;2023-02-16T01:12:50;102383.0;;;6.85;69.39
64019;BME280;66942;52.138;5.216;2023-02-16T01:14:26;102380.0;;;7.17;68.42
64019;BME280;66942;52.138;5.216;2023-02-16T01:16:10;102383.0;;;6.97;68.56
64019;BME280;66942;52.138;5.216;2023-02-16T01:19:24;102378.0;;;6.85;69.47
64019;BME280;66942;52.138;5.216;2023-02-16T01:21:00;102375.0;;;7.11;68.78
64019;BME280;66942;52.138;5.216;2023-02-16T01:22:37;102372.0;;;7.0;69.24
64019;BME280;66942;52.138;5.216;2023-02-16T01:25:49;102373.0;;;7.2;68.64
64019;BME280;66942;52.138;5.216;2023-02-16T01:27:25;102377.0;;;7.16;68.61
64019;BME280;66942;52.138;5.216;2023-02-16T01:29:01;102372.0;;;7.28;68.44
64019;BME280;66942;52.138;5.216;2023-02-16T01:30:38;102371.0;;;7.19;68.66
64019;BME280;66942;52.138;5.216;2023-02-16T01:33:51;102372.0;;;7.1;68.97
64019;BME280;66942;52.138;5.216;2023-02-16T01:35:31;102370.0;;;7.06;69.27
64019;BME280;66942;52.138;5.216;2023-02-16T01:37:13;102368.0;;;7.25;68.86
64019;BME280;66942;52.138;5.216;2023-02-16T01:40:36;102371.0;;;7.21;68.95
64019;BME280;66942;52.138;5.216;2023-02-16T01:42:28;102373.0;;;7.06;69.42
64019;BME280;66942;52.138;5.216;2023-02-16T01:44:10;102364.0;;;7.22;68.73
64019;BME280;66942;52.138;5.216;2023-02-16T01:45:54;102361.0;;;7.1;69.11
64019;BME280;66942;52.138;5.216;2023-02-16T01:47:37;102361.0;;;7.2;68.92
64019;BME280;66942;52.138;5.216;2023-02-16T01:51:02;102363.0;;;7.34;68.74
64019;BME280;66942;52.138;5.216;2023-02-16T01:52:42;102361.0;;;7.22;69.11
64019;BME280;66942;52.138;5.216;2023-02-16T01:54:30;102361.0;;;7.37;68.69
64019;BME280;66942;52.138;5.216;2023-02-16T01:56:18;102357.0;;;7.19;69.39
64019;BME280;66942;52.138;5.216;2023-02-16T01:57:59;102353.0;;;7.46;68.78
64019;BME280;66942;52.138;5.216;2023-02-16T02:01:40;102353.0;;;7.28;69.34
64019;BME280;66942;52.138;5.216;2023-02-16T02:05:45;102358.0;;;7.24;69.59
64019;BME280;66942;52.138;5.216;2023-02-16T02:07:26;102351.0;;;7.61;68.75
64019;BME280;66942;52.138;5.216;2023-02-16T02:09:09;102350.0;;;7.55;68.86
64019;BME280;66942;52.138;5.216;2023-02-16T02:11:00;102344.0;;;7.66;68.72
64019;BME280;66942;52.138;5.216;2023-02-16T02:12:46;102346.0;;;7.56;69.02
64019;BME280;66942;52.138;5.216;2023-02-16T02:16:09;102342.0;;;7.73;68.69
64019;BME280;66942;52.138;5.216;2023-02-16T02:17:45;102345.0;;;7.71;68.73
64019;BME280;66942;52.138;5.216;2023-02-16T02:19:22;102340.0;;;7.76;68.48
64019;BME280;66942;52.138;5.216;2023-02-16T02:25:22;102333.0;;;7.84;68.34
64019;BME280;66942;52.138;5.216;2023-02-16T02:27:18;102335.0;;;7.76;68.52
64019;BME280;66942;52.138;5.216;2023-02-16T02:30:54;102335.0;;;7.86;68.41
64019;BME280;66942;52.138;5.216;2023-02-16T02:32:47;102332.0;;;7.89;68.17
64019;BME280;66942;52.138;5.216;2023-02-16T02:34:39;102328.0;;;8.02;67.83
64019;BME280;66942;52.138;5.216;2023-02-16T02:36:28;102328.0;;;7.83;68.27
64019;BME280;66942;52.138;5.216;2023-02-16T02:38:12;102324.0;;;8.06;67.66
64019;BME280;66942;52.138;5.216;2023-02-16T02:39:57;102327.0;;;8.07;67.35
64019;BME280;66942;52.138;5.216;2023-02-16T02:42:19;102326.0;;;8.06;67.58
64019;BME280;66942;52.138;5.216;2023-02-16T02:44:04;102322.0;;;7.88;67.98
64019;BME280;66942;52.138;5.216;2023-02-16T02:47:36;102319.0;;;8.03;67.56
64019;BME280;66942;52.138;5.216;2023-02-16T02:49:13;102319.0;;;8.08;67.25
64019;BME280;66942;52.138;5.216;2023-02-16T02:51:54;102320.0;;;8.11;67.23
64019;BME280;66942;52.138;5.216;2023-02-16T02:53:34;102314.0;;;7.99;67.35
64019;BME280;66942;52.138;5.216;2023-02-16T03:00:49;102307.0;;;8.26;66.97
64019;BME280;66942;52.138;5.216;2023-02-16T03:02:27;102305.0;;;8.2;67.16
64019;BME280;66942;52.138;5.216;2023-02-16T03:04:07;102299.0;;;8.39;66.62
64019;BME280;66942;52.138;5.216;2023-02-16T03:05:50;102300.0;;;8.28;66.85
64019;BME280;66942;52.138;5.216;2023-02-16T03:07:48;102287.0;;;8.19;67.25
64019;BME280;66942;52.138;5.216;2023-02-16T03:09:27;102290.0;;;8.27;66.77
64019;BME280;66942;52.138;5.216;2023-02-16T03:12:53;102280.0;;;8.4;66.48
64019;BME280;66942;52.138;5.216;2023-02-16T03:14:41;102283.0;;;8.4;66.47
64019;BME280;66942;52.138;5.216;2023-02-16T03:16:24;102278.0;;;8.44;66.45
64019;BME280;66942;52.138;5.216;2023-02-16T03:30:32;102285.0;;;8.59;66.17
64019;BME280;66942;52.138;5.216;2023-02-16T03:32:09;102280.0;;;8.75;65.58
64019;BME280;66942;52.138;5.216;2023-02-16T03:35:23;102283.0;;;8.86;65.37
64019;BME280;66942;52.138;5.216;2023-02-16T03:37:00;102280.0;;;8.82;65.36
64019;BME280;66942;52.138;5.216;2023-02-16T03:38:38;102277.0;;;8.88;65.16
64019;BME280;66942;52.138;5.216;2023-02-16T03:40:32;102270.0;;;8.75;65.58
64019;BME280;66942;52.138;5.216;2023-02-16T03:43:47;102285.0;;;8.76;65.45
64019;BME280;66942;52.138;5.216;2023-02-16T03:45:24;102276.0;;;8.77;65.39
64019;BME280;66942;52.138;5.216;2023-02-16T03:47:00;102280.0;;;8.91;65.08
64019;BME280;66942;52.138;5.216;2023-02-16T03:48:36;102286.0;;;8.88;65.05
64019;BME280;66942;52.138;5.216;2023-02-16T03:51:49;102288.0;;;9.06;64.7
64019;BME280;66942;52.138;5.216;2023-02-16T03:53:26;102291.0;;;8.97;64.92
64019;BME280;66942;52.138;5.216;2023-02-16T03:55:02;102298.0;;;8.96;65.19
64019;BME280;66942;52.138;5.216;2023-02-16T03:58:19;102299.0;;;8.92;65.41
64019;BME280;66942;52.138;5.216;2023-02-16T03:59:58;102299.0;;;8.78;65.41
64019;BME280;66942;52.138;5.216;2023-02-16T04:01:34;102299.0;;;8.89;64.83
64019;BME280;66942;52.138;5.216;2023-02-16T04:04:48;102301.0;;;8.92;65.08
64019;BME280;66942;52.138;5.216;2023-02-16T04:06:24;102295.0;;;9.14;64.47
64019;BME280;66942;52.138;5.216;2023-02-16T04:08:01;102298.0;;;9.21;64.17
64019;BME280;66942;52.138;5.216;2023-02-16T04:09:38;102301.0;;;9.08;64.92
64019;BME280;66942;52.138;5.216;2023-02-16T04:14:14;102299.0;;;9.16;64.45
64019;BME280;66942;52.138;5.216;2023-02-16T04:15:51;102288.0;;;8.96;64.6
64019;BME280;66942;52.138;5.216;2023-02-16T04:19:03;102286.0;;;9.13;64.53
64019;BME280;66942;52.138;5.216;2023-02-16T04:20:39;102292.0;;;9.13;64.34
64019;BME280;66942;52.138;5.216;2023-02-16T04:22:15;102292.0;;;9.03;64.55
64019;BME280;66942;52.138;5.216;2023-02-16T04:25:28;102285.0;;;9.14;64.53
64019;BME280;66942;52.138;5.216;2023-02-16T04:27:04;102281.0;;;9.01;64.55
64019;BME280;66942;52.138;5.216;2023-02-16T04:28:41;102282.0;;;9.08;64.52
64019;BME280;66942;52.138;5.216;2023-02-16T04:31:56;102288.0;;;8.98;64.8
64019;BME280;66942;52.138;5.216;2023-02-16T04:33:32;102301.0;;;9.03;64.69
64019;BME280;66942;52.138;5.216;2023-02-16T04:35:09;102306.0;;;9.1;64.6
64019;BME280;66942;52.138;5.216;2023-02-16T04:36:45;102292.0;;;9.17;64.2
64019;BME280;66942;52.138;5.216;2023-02-16T04:39:58;102296.0;;;9.14;64.27
64019;BME280;66942;52.138;5.216;2023-02-16T04:41:34;102298.0;;;9.05;64.41
64019;BME280;66942;52.138;5.216;2023-02-16T04:43:10;102297.0;;;9.16;64.69
64019;BME280;66942;52.138;5.216;2023-02-16T04:46:23;102292.0;;;9.31;64.05
64019;BME280;66942;52.138;5.216;2023-02-16T04:47:59;102289.0;;;9.36;63.81
64019;BME280;66942;52.138;5.216;2023-02-16T04:49:36;102290.0;;;9.18;64.44
64019;BME280;66942;52.138;5.216;2023-02-16T04:52:48;102285.0;;;9.11;65.03
64019;BME280;66942;52.138;5.216;2023-02-16T04:54:24;102286.0;;;9.15;64.89
64019;BME280;66942;52.138;5.216;2023-02-16T04:56:00;102291.0;;;9.14;64.97
64019;BME280;66942;52.138;5.216;2023-02-16T04:57:37;102290.0;;;9.39;64.3
64019;BME280;66942;52.138;5.216;2023-02-16T05:00:51;102290.0;;;9.33;64.45
64019;BME280;66942;52.138;5.216;2023-02-16T05:02:28;102287.0;;;9.25;64.66
64019;BME280;66942;52.138;5.216;2023-02-16T05:04:04;102287.0;;;9.32;64.69
64019;BME280;66942;52.138;5.216;2023-02-16T05:07:16;102286.0;;;9.48;64.24
64019;BME280;66942;52.138;5.216;2023-02-16T05:08:52;102283.0;;;9.34;64.59
64019;BME280;66942;52.138;5.216;2023-02-16T05:10:29;102275.0;;;9.3;64.55
64019;BME280;66942;52.138;5.216;2023-02-16T05:16:15;102270.0;;;9.34;64.3
64019;BME280;66942;52.138;5.216;2023-02-16T05:17:51;102265.0;;;9.22;64.66
64019;BME280;66942;52.138;5.216;2023-02-16T05:19:27;102265.0;;;9.41;64.14
64019;BME280;66942;52.138;5.216;2023-02-16T05:21:35;102255.0;;;9.25;64.37
64019;BME280;66942;52.138;5.216;2023-02-16T05:23:11;102259.0;;;9.5;63.88
64019;BME280;66942;52.138;5.216;2023-02-16T05:26:25;102249.0;;;9.36;64.0
64019;BME280;66942;52.138;5.216;2023-02-16T05:28:02;102255.0;;;9.33;64.05
64019;BME280;66942;52.138;5.216;2023-02-16T05:29:39;102256.0;;;9.32;64.41
64019;BME280;66942;52.138;5.216;2023-02-16T05:31:15;102260.0;;;9.4;63.92
64019;BME280;66942;52.138;5.216;2023-02-16T05:34:27;102262.0;;;9.16;64.77
64019;BME280;66942;52.138;5.216;2023-02-16T05:36:05;102255.0;;;8.9;65.41
64019;BME280;66942;52.138;5.216;2023-02-16T05:37:41;102258.0;;;9.32;64.47
64019;BME280;66942;52.138;5.216;2023-02-16T05:40:54;102263.0;;;9.16;64.84
64019;BME280;66942;52.138;5.216;2023-02-16T05:42:30;102259.0;;;9.19;64.98
64019;BME280;66942;52.138;5.216;2023-02-16T05:44:07;102255.0;;;9.09;65.1
64019;BME280;66942;52.138;5.216;2023-02-16T05:45:44;102252.0;;;9.19;64.97
64019;BME280;66942;52.138;5.216;2023-02-16T05:48:57;102252.0;;;9.1;65.22
64019;BME280;66942;52.138;5.216;2023-02-16T05:50:33;102259.0;;;9.02;65.56
64019;BME280;66942;52.138;5.216;2023-02-16T05:52:09;102264.0;;;9.1;65.41
64019;BME280;66942;52.138;5.216;2023-02-16T05:55:22;102264.0;;;9.19;64.92
64019;BME280;66942;52.138;5.216;2023-02-16T05:56:58;102258.0;;;9.28;64.73
64019;BME280;66942;52.138;5.216;2023-02-16T05:58:36;102256.0;;;9.27;64.75
64019;BME280;66942;52.138;5.216;2023-02-16T06:01:50;102255.0;;;9.38;64.45
64019;BME280;66942;52.138;5.216;2023-02-16T06:03:26;102258.0;;;9.19;65.09
64019;BME280;66942;52.138;5.216;2023-02-16T06:05:02;102260.0;;;9.0;65.67
64019;BME280;66942;52.138;5.216;2023-02-16T06:08:14;102263.0;;;9.06;65.58
64019;BME280;66942;52.138;5.216;2023-02-16T06:09:51;102262.0;;;9.14;65.48
64019;BME280;66942;52.138;5.216;2023-02-16T06:11:43;102270.0;;;9.16;65.41
64019;BME280;66942;52.138;5.216;2023-02-16T06:13:21;102264.0;;;9.23;65.08
64019;BME280;66942;52.138;5.216;2023-02-16T06:16:37;102265.0;;;9.3;65.19
64019;BME280;66942;52.138;5.216;2023-02-16T06:18:14;102265.0;;;9.49;64.5
64019;BME280;66942;52.138;5.216;2023-02-16T06:19:50;102263.0;;;9.21;65.37
64019;BME280;66942;52.138;5.216;2023-02-16T06:21:27;102264.0;;;9.49;64.55
64019;BME280;66942;52.138;5.216;2023-02-16T06:24:42;102266.0;;;9.16;65.36
64019;BME280;66942;52.138;5.216;2023-02-16T06:26:18;102264.0;;;9.1;65.72
64019;BME280;66942;52.138;5.216;2023-02-16T06:27:56;102267.0;;;9.06;65.89
64019;BME280;66942;52.138;5.216;2023-02-16T06:31:09;102269.0;;;9.23;65.5
64019;BME280;66942;52.138;5.216;2023-02-16T06:32:45;102261.0;;;9.22;65.52
64019;BME280;66942;52.138;5.216;2023-02-16T06:34:22;102267.0;;;9.21;65.69
64019;BME280;66942;52.138;5.216;2023-02-16T06:35:59;102268.0;;;9.16;65.77
64019;BME280;66942;52.138;5.216;2023-02-16T06:39:11;102261.0;;;9.19;65.72
64019;BME280;66942;52.138;5.216;2023-02-16T06:40:50;102262.0;;;9.24;65.41
64019;BME280;66942;52.138;5.216;2023-02-16T06:42:26;102266.0;;;9.38;65.16
64019;BME280;66942;52.138;5.216;2023-02-16T06:45:42;102268.0;;;9.47;64.88
64019;BME280;66942;52.138;5.216;2023-02-16T06:47:18;102263.0;;;9.31;65.22
64019;BME280;66942;52.138;5.216;2023-02-16T06:48:54;102269.0;;;9.35;65.2
64019;BME280;66942;52.138;5.216;2023-02-16T06:52:07;102269.0;;;9.26;65.45
64019;BME280;66942;52.138;5.216;2023-02-16T06:53:43;102280.0;;;9.18;65.81
64019;BME280;66942;52.138;5.216;2023-02-16T06:55:20;102274.0;;;9.23;66.1
64019;BME280;66942;52.138;5.216;2023-02-16T06:56:56;102268.0;;;9.18;65.69
64019;BME280;66942;52.138;5.216;2023-02-16T07:00:09;102274.0;;;9.44;65.19
64019;BME280;66942;52.138;5.216;2023-02-16T07:01:45;102272.0;;;9.34;65.19
64019;BME280;66942;52.138;5.216;2023-02-16T07:03:21;102276.0;;;9.5;65.12
64019;BME280;66942;52.138;5.216;2023-02-16T07:06:34;102284.0;;;9.61;64.86
64019;BME280;66942;52.138;5.216;2023-02-16T07:08:10;102287.0;;;9.55;64.88
64019;BME280;66942;52.138;5.216;2023-02-16T07:09:46;102287.0;;;9.46;65.22
64019;BME280;66942;52.138;5.216;2023-02-16T07:12:58;102284.0;;;9.61;64.98
64019;BME280;66942;52.138;5.216;2023-02-16T07:14:34;102287.0;;;9.63;65.11
64019;BME280;66942;52.138;5.216;2023-02-16T07:16:11;102285.0;;;9.64;64.8
64019;BME280;66942;52.138;5.216;2023-02-16T07:17:49;102282.0;;;9.74;64.75
64019;BME280;66942;52.138;5.216;2023-02-16T07:21:03;102283.0;;;9.76;64.8
64019;BME280;66942;52.138;5.216;2023-02-16T07:22:40;102290.0;;;9.68;64.97
64019;BME280;66942;52.138;5.216;2023-02-16T07:24:16;102295.0;;;9.6;65.19
64019;BME280;66942;52.138;5.216;2023-02-16T07:27:29;102296.0;;;9.52;65.37
64019;BME280;66942;52.138;5.216;2023-02-16T07:29:05;102302.0;;;9.56;65.2
64019;BME280;66942;52.138;5.216;2023-02-16T07:30:42;102303.0;;;9.75;64.74
64019;BME280;66942;52.138;5.216;2023-02-16T07:33:55;102305.0;;;9.78;64.48
64019;BME280;66942;52.138;5.216;2023-02-16T07:35:31;102301.0;;;9.56;65.55
64019;BME280;66942;52.138;5.216;2023-02-16T07:37:08;102299.0;;;9.71;65.08
64019;BME280;66942;52.138;5.216;2023-02-16T07:38:44;102298.0;;;9.75;64.88
64019;BME280;66942;52.138;5.216;2023-02-16T07:41:59;102299.0;;;9.91;64.36
64019;BME280;66942;52.138;5.216;2023-02-16T07:43:35;102300.0;;;9.93;64.44
64019;BME280;66942;52.138;5.216;2023-02-16T07:45:12;102299.0;;;9.84;64.83
64019;BME280;66942;52.138;5.216;2023-02-16T07:48:25;102306.0;;;9.82;64.87
64019;BME280;66942;52.138;5.216;2023-02-16T07:50:02;102307.0;;;9.73;64.94
64019;BME280;66942;52.138;5.216;2023-02-16T07:51:39;102305.0;;;9.9;64.44
64019;BME280;66942;52.138;5.216;2023-02-16T07:54:53;102305.0;;;10.02;64.37
64019;BME280;66942;52.138;5.216;2023-02-16T07:56:31;102307.0;;;9.86;64.87
64019;BME280;66942;52.138;5.216;2023-02-16T07:58:11;102310.0;;;9.98;64.48
64019;BME280;66942;52.138;5.216;2023-02-16T07:59:49;102310.0;;;10.02;64.53
64019;BME280;66942;52.138;5.216;2023-02-16T08:03:04;102316.0;;;10.02;64.63
64019;BME280;66942;52.138;5.216;2023-02-16T08:04:41;102314.0;;;10.05;64.52
64019;BME280;66942;52.138;5.216;2023-02-16T08:06:18;102317.0;;;10.06;64.47
64019;BME280;66942;52.138;5.216;2023-02-16T08:09:33;102318.0;;;10.23;64.33
64019;BME280;66942;52.138;5.216;2023-02-16T08:11:09;102321.0;;;10.22;64.33
64019;BME280;66942;52.138;5.216;2023-02-16T08:12:49;102319.0;;;10.14;64.47
64019;BME280;66942;52.138;5.216;2023-02-16T08:14:25;102324.0;;;10.18;64.44
64019;BME280;66942;52.138;5.216;2023-02-16T08:17:37;102319.0;;;10.32;64.13
64019;BME280;66942;52.138;5.216;2023-02-16T08:19:14;102321.0;;;10.36;64.41
64019;BME280;66942;52.138;5.216;2023-02-16T08:20:50;102321.0;;;10.35;64.02
64019;BME280;66942;52.138;5.216;2023-02-16T08:24:05;102324.0;;;10.45;63.95
64019;BME280;66942;52.138;5.216;2023-02-16T08:25:43;102330.0;;;10.46;63.8
64019;BME280;66942;52.138;5.216;2023-02-16T08:27:19;102327.0;;;10.36;63.97
64019;BME280;66942;52.138;5.216;2023-02-16T08:28:56;102328.0;;;10.42;63.7
64019;BME280;66942;52.138;5.216;2023-02-16T08:32:11;102327.0;;;10.44;63.76
64019;BME280;66942;52.138;5.216;2023-02-16T08:33:48;102327.0;;;10.41;64.02
64019;BME280;66942;52.138;5.216;2023-02-16T08:35:27;102336.0;;;10.47;63.61
64019;BME280;66942;52.138;5.216;2023-02-16T08:38:42;102331.0;;;10.49;63.68
64019;BME280;66942;52.138;5.216;2023-02-16T08:40:24;102331.0;;;10.56;63.43
64019;BME280;66942;52.138;5.216;2023-02-16T08:42:00;102333.0;;;10.55;63.45
64019;BME280;66942;52.138;5.216;2023-02-16T08:43:37;102337.0;;;10.37;63.8
64019;BME280;66942;52.138;5.216;2023-02-16T08:46:52;102335.0;;;10.51;63.42
64019;BME280;66942;52.138;5.216;2023-02-16T08:48:34;102336.0;;;10.62;63.22
64019;BME280;66942;52.138;5.216;2023-02-16T08:50:11;102336.0;;;10.66;63.28
64019;BME280;66942;52.138;5.216;2023-02-16T08:53:32;102336.0;;;10.55;63.58
64019;BME280;66942;52.138;5.216;2023-02-16T08:55:08;102340.0;;;10.6;63.38
64019;BME280;66942;52.138;5.216;2023-02-16T08:56:47;102340.0;;;10.75;63.2
64019;BME280;66942;52.138;5.216;2023-02-16T08:58:23;102339.0;;;10.71;63.62
64019;BME280;66942;52.138;5.216;2023-02-16T09:02:42;102346.0;;;10.58;64.3
64019;BME280;66942;52.138;5.216;2023-02-16T09:05:59;102348.0;;;10.68;64.44
64019;BME280;66942;52.138;5.216;2023-02-16T09:07:36;102347.0;;;10.78;64.75
64019;BME280;66942;52.138;5.216;2023-02-16T09:09:13;102342.0;;;10.64;65.55
64019;BME280;66942;52.138;5.216;2023-02-16T09:10:50;102344.0;;;10.65;66.63
64019;BME280;66942;52.138;5.216;2023-02-16T09:14:03;102338.0;;;10.63;66.86
64019;BME280;66942;52.138;5.216;2023-02-16T09:15:41;102345.0;;;10.44;67.55
64019;BME280;66942;52.138;5.216;2023-02-16T09:17:19;102352.0;;;10.52;67.6
64019;BME280;66942;52.138;5.216;2023-02-16T09:20:31;102356.0;;;10.5;67.92
64019;BME280;66942;52.138;5.216;2023-02-16T09:22:08;102351.0;;;10.65;67.67
64019;BME280;66942;52.138;5.216;2023-02-16T09:23:48;102344.0;;;10.57;67.89
64019;BME280;66942;52.138;5.216;2023-02-16T09:25:26;102340.0;;;10.51;68.61
64019;BME280;66942;52.138;5.216;2023-02-16T09:28:40;102328.0;;;10.49;68.91
64019;BME280;66942;52.138;5.216;2023-02-16T09:30:16;102327.0;;;10.55;68.89
64019;BME280;66942;52.138;5.216;2023-02-16T09:31:53;102325.0;;;10.42;69.58
64019;BME280;66942;52.138;5.216;2023-02-16T09:35:06;102330.0;;;10.27;70.74
64019;BME280;66942;52.138;5.216;2023-02-16T09:36:43;102333.0;;;10.34;70.72
64019;BME280;66942;52.138;5.216;2023-02-16T09:38:20;102334.0;;;10.52;70.12
64019;BME280;66942;52.138;5.216;2023-02-16T09:41:41;102338.0;;;10.49;70.25
64019;BME280;66942;52.138;5.216;2023-02-16T09:43:43;102330.0;;;10.49;69.83
64019;BME280;66942;52.138;5.216;2023-02-16T09:45:25;102336.0;;;10.41;70.34
64019;BME280;66942;52.138;5.216;2023-02-16T09:47:05;102337.0;;;10.36;70.47
64019;BME280;66942;52.138;5.216;2023-02-16T09:48:53;102341.0;;;10.51;69.8
64019;BME280;66942;52.138;5.216;2023-02-16T09:52:12;102334.0;;;10.54;69.8
64019;BME280;66942;52.138;5.216;2023-02-16T09:54:10;102341.0;;;10.56;69.66
64019;BME280;66942;52.138;5.216;2023-02-16T09:55:58;102338.0;;;10.46;70.3
64019;BME280;66942;52.138;5.216;2023-02-16T09:57:53;102343.0;;;10.38;70.62
64019;BME280;66942;52.138;5.216;2023-02-16T09:59:44;102342.0;;;10.56;70.38
64019;BME280;66942;52.138;5.216;2023-02-16T10:01:29;102346.0;;;10.49;70.77
64019;BME280;66942;52.138;5.216;2023-02-16T10:03:21;102347.0;;;10.44;70.97
64019;BME280;66942;52.138;5.216;2023-02-16T10:05:20;102350.0;;;10.51;70.83
64019;BME280;66942;52.138;5.216;2023-02-16T10:09:03;102358.0;;;10.62;70.7
64019;BME280;66942;52.138;5.216;2023-02-16T10:10:47;102356.0;;;10.78;70.5
64019;BME280;66942;52.138;5.216;2023-02-16T10:12:32;102358.0;;;10.67;71.08
64019;BME280;66942;52.138;5.216;2023-02-16T10:14:19;102348.0;;;10.88;70.61
64019;BME280;66942;52.138;5.216;2023-02-16T10:16:03;102342.0;;;10.89;70.49
64019;BME280;66942;52.138;5.216;2023-02-16T10:19:28;102344.0;;;10.84;70.86
64019;BME280;66942;52.138;5.216;2023-02-16T10:21:13;102343.0;;;10.91;69.95
64019;BME280;66942;52.138;5.216;2023-02-16T10:22:55;102344.0;;;11.08;70.0
64019;BME280;66942;52.138;5.216;2023-02-16T10:24:43;102346.0;;;10.99;70.22
64019;BME280;66942;52.138;5.216;2023-02-16T10:26:29;102344.0;;;11.05;70.27
64019;BME280;66942;52.138;5.216;2023-02-16T10:29:53;102345.0;;;11.09;70.23
64019;BME280;66942;52.138;5.216;2023-02-16T10:31:35;102338.0;;;11.17;70.37
64019;BME280;66942;52.138;5.216;2023-02-16T10:33:15;102335.0;;;11.29;70.22
64019;BME280;66942;52.138;5.216;2023-02-16T10:35:03;102338.0;;;11.4;69.84
64019;BME280;66942;52.138;5.216;2023-02-16T10:37:02;102335.0;;;11.4;69.89
64019;BME280;66942;52.138;5.216;2023-02-16T10:38:50;102335.0;;;11.36;69.83
64019;BME280;66942;52.138;5.216;2023-02-16T10:42:38;102338.0;;;11.31;69.83
64019;BME280;66942;52.138;5.216;2023-02-16T10:44:21;102342.0;;;11.5;69.06
64019;BME280;66942;52.138;5.216;2023-02-16T10:45:59;102337.0;;;11.55;69.16
64019;BME280;66942;52.138;5.216;2023-02-16T10:47:38;102340.0;;;11.54;68.97
64019;BME280;66942;52.138;5.216;2023-02-16T10:49:16;102338.0;;;11.56;69.17
64019;BME280;66942;52.138;5.216;2023-02-16T10:52:37;102334.0;;;11.59;69.2
64019;BME280;66942;52.138;5.216;2023-02-16T10:54:19;102327.0;;;11.49;69.44
64019;BME280;66942;52.138;5.216;2023-02-16T10:56:00;102322.0;;;11.63;69.13
64019;BME280;66942;52.138;5.216;2023-02-16T10:57:38;102318.0;;;11.63;69.24
64019;BME280;66942;52.138;5.216;2023-02-16T11:01:00;102314.0;;;11.73;69.05
64019;BME280;66942;52.138;5.216;2023-02-16T11:02:44;102312.0;;;11.69;69.45
64019;BME280;66942;52.138;5.216;2023-02-16T11:04:33;102313.0;;;11.83;69.64
64019;BME280;66942;52.138;5.216;2023-02-16T11:06:18;102308.0;;;11.79;69.42
64019;BME280;66942;52.138;5.216;2023-02-16T11:07:58;102306.0;;;11.73;69.28
64019;BME280;66942;52.138;5.216;2023-02-16T11:11:12;102307.0;;;11.92;69.58
64019;BME280;66942;52.138;5.216;2023-02-16T11:12:53;102306.0;;;11.91;69.8
64019;BME280;66942;52.138;5.216;2023-02-16T11:14:31;102305.0;;;11.94;69.86
64019;BME280;66942;52.138;5.216;2023-02-16T11:17:55;102296.0;;;11.76;69.72
64019;BME280;66942;52.138;5.216;2023-02-16T11:19:33;102297.0;;;12.05;69.3
64019;BME280;66942;52.138;5.216;2023-02-16T11:21:11;102301.0;;;11.99;69.56
64019;BME280;66942;52.138;5.216;2023-02-16T11:22:47;102300.0;;;12.14;69.44
64019;BME280;66942;52.138;5.216;2023-02-16T11:26:06;102303.0;;;11.97;69.17
64019;BME280;66942;52.138;5.216;2023-02-16T11:27:59;102296.0;;;12.16;69.12
64019;BME280;66942;52.138;5.216;2023-02-16T11:29:36;102293.0;;;12.18;69.19
64019;BME280;66942;52.138;5.216;2023-02-16T11:31:15;102292.0;;;12.36;69.2
64019;BME280;66942;52.138;5.216;2023-02-16T11:34:32;102294.0;;;12.24;69.36
64019;BME280;66942;52.138;5.216;2023-02-16T11:36:30;102291.0;;;12.37;69.16
64019;BME280;66942;52.138;5.216;2023-02-16T11:38:23;102290.0;;;12.19;68.77
64019;BME280;66942;52.138;5.216;2023-02-16T11:40:04;102287.0;;;12.35;69.0
64019;BME280;66942;52.138;5.216;2023-02-16T11:41:54;102295.0;;;12.48;69.25
64019;BME280;66942;52.138;5.216;2023-02-16T11:43:36;102292.0;;;12.54;68.81
64019;BME280;66942;52.138;5.216;2023-02-16T11:47:04;102290.0;;;12.31;69.08